sensor_id;sensor_type;location;lat;lon;timestamp;pressure;altitude;pressure_sealevel;temperature;humidity
22389;BME280;11362;48.102;11.620;2023-09-12T00:02:03;95054.22;;;27.42;46.10
22389;BME280;11362;48.102;11.620;2023-09-12T00:04:29;95051.44;;;27.42;45.89
22389;BME280;11362;48.102;11.620;2023-09-12T00:06:54;95040.72;;;27.40;45.86
22389;BME280;11362;48.102;11.620;2023-09-12T00:09:19;95046.31;;;27.40;46.19
22389;BME280;11362;48.102;11.620;2023-09-12T00:11:44;95044.75;;;27.39;46.01
22389;BME280;11362;48.102;11.620;2023-09-12T00:14:15;95037.13;;;27.40;45.77
22389;BME280;11362;48.102;11.620;2023-09-12T00:16:40;95032.03;;;27.38;46.07
22389;BME280;11362;48.102;11.620;2023-09-12T00:19:05;95038.38;;;27.39;45.91
22389;BME280;11362;48.102;11.620;2023-09-12T00:21:31;95037.59;;;27.38;45.88
22389;BME280;11362;48.102;11.620;2023-09-12T00:23:56;95035.25;;;27.37;45.78
22389;BME280;11362;48.102;11.620;2023-09-12T00:26:21;95036.81;;;27.38;45.69
22389;BME280;11362;48.102;11.620;2023-09-12T00:28:46;95031.69;;;27.36;45.73
22389;BME280;11362;48.102;11.620;2023-09-12T00:31:12;95032.03;;;27.38;45.69
22389;BME280;11362;48.102;11.620;2023-09-12T00:33:37;95034.03;;;27.38;45.73
22389;BME280;11362;48.102;11.620;2023-09-12T00:36:03;95034.81;;;27.38;45.75
22389;BME280;11362;48.102;11.620;2023-09-12T00:38:28;95022.88;;;27.38;45.06
22389;BME280;11362;48.102;11.620;2023-09-12T00:40:54;95015.72;;;27.37;45.53
22389;BME280;11362;48.102;11.620;2023-09-12T00:43:19;95022.53;;;27.36;45.55
22389;BME280;11362;48.102;11.620;2023-09-12T00:45:44;95021.63;;;27.39;45.33
22389;BME280;11362;48.102;11.620;2023-09-12T00:48:10;95017.28;;;27.38;45.36
22389;BME280;11362;48.102;11.620;2023-09-12T00:50:37;95010.91;;;27.37;45.37
22389;BME280;11362;48.102;11.620;2023-09-12T00:53:04;95012.16;;;27.36;45.30
22389;BME280;11362;48.102;11.620;2023-09-12T00:55:31;95014.94;;;27.36;45.23
22389;BME280;11362;48.102;11.620;2023-09-12T00:57:57;95010.59;;;27.35;45.27
22389;BME280;11362;48.102;11.620;2023-09-12T01:00:23;95008.59;;;27.36;45.24
22389;BME280;11362;48.102;11.620;2023-09-12T01:02:48;95008.13;;;27.37;45.07
22389;BME280;11362;48.102;11.620;2023-09-12T01:05:14;95012.63;;;27.35;45.26
22389;BME280;11362;48.102;11.620;2023-09-12T01:07:41;95010.59;;;27.35;45.28
22389;BME280;11362;48.102;11.620;2023-09-12T01:10:08;95006.56;;;27.36;45.04
22389;BME280;11362;48.102;11.620;2023-09-12T01:12:34;95012.94;;;27.37;45.00
22389;BME280;11362;48.102;11.620;2023-09-12T01:14:59;95005.81;;;27.36;44.99
22389;BME280;11362;48.102;11.620;2023-09-12T01:17:25;95002.22;;;27.35;45.13
22389;BME280;11362;48.102;11.620;2023-09-12T01:19:51;95005.81;;;27.36;45.13
22389;BME280;11362;48.102;11.620;2023-09-12T01:28:05;95008.72;;;27.32;44.98
22389;BME280;11362;48.102;11.620;2023-09-12T01:30:34;95003.91;;;27.33;44.92
22389;BME280;11362;48.102;11.620;2023-09-12T01:33:01;95007.81;;;27.35;45.00
22389;BME280;11362;48.102;11.620;2023-09-12T01:35:26;95001.09;;;27.33;44.63
22389;BME280;11362;48.102;11.620;2023-09-12T01:37:52;94999.13;;;27.33;44.75
22389;BME280;11362;48.102;11.620;2023-09-12T01:40:17;94997.88;;;27.34;44.76
22389;BME280;11362;48.102;11.620;2023-09-12T01:42:45;95000.66;;;27.34;44.78
22389;BME280;11362;48.102;11.620;2023-09-12T01:45:15;94993.53;;;27.33;44.83
22389;BME280;11362;48.102;11.620;2023-09-12T01:47:41;94999.56;;;27.32;44.74
22389;BME280;11362;48.102;11.620;2023-09-12T01:50:09;95003.13;;;27.32;44.69
22389;BME280;11362;48.102;11.620;2023-09-12T01:52:35;95006.69;;;27.33;44.76
22389;BME280;11362;48.102;11.620;2023-09-12T01:55:01;95010.72;;;27.32;44.58
22389;BME280;11362;48.102;11.620;2023-09-12T01:57:27;95007.47;;;27.33;44.47
22389;BME280;11362;48.102;11.620;2023-09-12T01:59:53;95013.06;;;27.33;44.46
22389;BME280;11362;48.102;11.620;2023-09-12T02:02:18;95009.94;;;27.31;44.47
22389;BME280;11362;48.102;11.620;2023-09-12T02:05:10;95014.72;;;27.31;44.37
22389;BME280;11362;48.102;11.620;2023-09-12T02:07:38;95014.28;;;27.32;44.50
22389;BME280;11362;48.102;11.620;2023-09-12T02:10:04;95025.09;;;27.30;44.55
22389;BME280;11362;48.102;11.620;2023-09-12T02:12:30;95021.53;;;27.30;44.30
22389;BME280;11362;48.102;11.620;2023-09-12T02:14:55;95021.09;;;27.31;44.40
22389;BME280;11362;48.102;11.620;2023-09-12T02:17:21;95023.09;;;27.31;44.41
22389;BME280;11362;48.102;11.620;2023-09-12T02:19:47;95025.09;;;27.30;44.37
22389;BME280;11362;48.102;11.620;2023-09-12T02:22:13;95023.09;;;27.31;44.43
22389;BME280;11362;48.102;11.620;2023-09-12T02:24:39;95023.09;;;27.31;44.18
22389;BME280;11362;48.102;11.620;2023-09-12T02:27:04;95027.44;;;27.32;44.38
22389;BME280;11362;48.102;11.620;2023-09-12T02:29:30;95025.09;;;27.30;44.11
22389;BME280;11362;48.102;11.620;2023-09-12T02:31:56;95029.91;;;27.30;44.31
22389;BME280;11362;48.102;11.620;2023-09-12T02:34:22;95027.88;;;27.30;44.22
22389;BME280;11362;48.102;11.620;2023-09-12T02:36:47;95023.53;;;27.29;44.43
22389;BME280;11362;48.102;11.620;2023-09-12T02:39:13;95028.34;;;27.29;44.14
22389;BME280;11362;48.102;11.620;2023-09-12T02:41:38;95022.78;;;27.29;44.34
22389;BME280;11362;48.102;11.620;2023-09-12T02:44:04;95025.25;;;27.27;44.19
22389;BME280;11362;48.102;11.620;2023-09-12T02:46:30;95030.03;;;27.26;43.92
22389;BME280;11362;48.102;11.620;2023-09-12T02:48:55;95032.81;;;27.26;44.43
22389;BME280;11362;48.102;11.620;2023-09-12T02:51:21;95029.22;;;27.26;43.94
22389;BME280;11362;48.102;11.620;2023-09-12T02:53:46;95018.88;;;27.26;43.91
22389;BME280;11362;48.102;11.620;2023-09-12T02:56:12;95027.56;;;27.28;44.10
22389;BME280;11362;48.102;11.620;2023-09-12T02:58:38;95024.31;;;27.30;43.72
22389;BME280;11362;48.102;11.620;2023-09-12T03:01:04;95023.53;;;27.29;43.81
22389;BME280;11362;48.102;11.620;2023-09-12T03:03:30;95031.56;;;27.27;43.90
22389;BME280;11362;48.102;11.620;2023-09-12T03:06:00;95019.19;;;27.28;43.55
22389;BME280;11362;48.102;11.620;2023-09-12T03:08:25;95024.75;;;27.28;43.73
22389;BME280;11362;48.102;11.620;2023-09-12T03:10:55;95017.63;;;27.27;43.68
22389;BME280;11362;48.102;11.620;2023-09-12T03:13:23;95018.88;;;27.26;43.75
22389;BME280;11362;48.102;11.620;2023-09-12T03:15:49;95022.44;;;27.27;43.70
22389;BME280;11362;48.102;11.620;2023-09-12T03:18:14;95028.03;;;27.27;43.91
22389;BME280;11362;48.102;11.620;2023-09-12T03:20:40;95022.44;;;27.27;43.79
22389;BME280;11362;48.102;11.620;2023-09-12T03:23:06;95018.88;;;27.26;43.89
22389;BME280;11362;48.102;11.620;2023-09-12T03:25:38;95019.31;;;27.25;43.64
22389;BME280;11362;48.102;11.620;2023-09-12T03:28:05;95015.75;;;27.24;43.87
22389;BME280;11362;48.102;11.620;2023-09-12T03:30:33;95019.78;;;27.23;43.88
22389;BME280;11362;48.102;11.620;2023-09-12T03:32:59;95022.09;;;27.25;43.77
22389;BME280;11362;48.102;11.620;2023-09-12T03:35:25;95022.09;;;27.25;43.84
22389;BME280;11362;48.102;11.620;2023-09-12T03:37:50;95021.31;;;27.24;43.79
22389;BME280;11362;48.102;11.620;2023-09-12T03:40:16;95026.91;;;27.24;43.81
22389;BME280;11362;48.102;11.620;2023-09-12T03:42:42;95017.31;;;27.25;44.01
22389;BME280;11362;48.102;11.620;2023-09-12T03:45:08;95016.50;;;27.25;43.86
22389;BME280;11362;48.102;11.620;2023-09-12T03:47:34;95018.19;;;27.22;43.79
22389;BME280;11362;48.102;11.620;2023-09-12T03:50:00;95023.00;;;27.22;44.06
22389;BME280;11362;48.102;11.620;2023-09-12T03:52:25;95025.78;;;27.22;43.94
22389;BME280;11362;48.102;11.620;2023-09-12T03:54:51;95014.19;;;27.23;43.78
22389;BME280;11362;48.102;11.620;2023-09-12T03:57:16;95020.97;;;27.22;43.86
22389;BME280;11362;48.102;11.620;2023-09-12T03:59:42;95018.19;;;27.22;43.63
22389;BME280;11362;48.102;11.620;2023-09-12T04:02:08;95018.19;;;27.22;43.96
22389;BME280;11362;48.102;11.620;2023-09-12T04:04:34;95027.03;;;27.21;43.61
22389;BME280;11362;48.102;11.620;2023-09-12T04:07:00;95017.41;;;27.22;43.71
22389;BME280;11362;48.102;11.620;2023-09-12T04:09:25;95015.19;;;27.17;43.55
22389;BME280;11362;48.102;11.620;2023-09-12T04:11:51;95020.97;;;27.22;43.60
22389;BME280;11362;48.102;11.620;2023-09-12T04:14:17;95023.00;;;27.22;43.71
22389;BME280;11362;48.102;11.620;2023-09-12T04:16:43;95022.19;;;27.21;43.62
22389;BME280;11362;48.102;11.620;2023-09-12T04:19:08;95025.34;;;27.23;43.54
22389;BME280;11362;48.102;11.620;2023-09-12T04:21:34;95025.78;;;27.22;43.52
22389;BME280;11362;48.102;11.620;2023-09-12T04:24:00;95021.44;;;27.21;43.44
22389;BME280;11362;48.102;11.620;2023-09-12T04:26:26;95029.34;;;27.22;43.25
22389;BME280;11362;48.102;11.620;2023-09-12T04:28:51;95033.34;;;27.21;43.30
22389;BME280;11362;48.102;11.620;2023-09-12T04:31:17;95026.53;;;27.22;43.39
22389;BME280;11362;48.102;11.620;2023-09-12T04:33:43;95033.03;;;27.19;43.26
22389;BME280;11362;48.102;11.620;2023-09-12T04:36:09;95033.03;;;27.19;43.12
22389;BME280;11362;48.102;11.620;2023-09-12T04:38:35;95033.03;;;27.19;43.04
22389;BME280;11362;48.102;11.620;2023-09-12T04:41:02;95031.81;;;27.20;43.24
22389;BME280;11362;48.102;11.620;2023-09-12T04:43:27;95031.03;;;27.20;43.07
22389;BME280;11362;48.102;11.620;2023-09-12T04:45:53;95030.25;;;27.19;42.95
22389;BME280;11362;48.102;11.620;2023-09-12T04:48:19;95035.38;;;27.21;42.79
22389;BME280;11362;48.102;11.620;2023-09-12T04:50:44;95017.53;;;27.18;43.17
22389;BME280;11362;48.102;11.620;2023-09-12T04:53:10;95030.25;;;27.19;42.97
22389;BME280;11362;48.102;11.620;2023-09-12T04:55:36;95034.25;;;27.18;42.75
22389;BME280;11362;48.102;11.620;2023-09-12T04:58:02;95033.47;;;27.18;42.93
22389;BME280;11362;48.102;11.620;2023-09-12T05:00:28;95032.72;;;27.17;42.77
22389;BME280;11362;48.102;11.620;2023-09-12T05:02:54;95031.47;;;27.18;42.84
22389;BME280;11362;48.102;11.620;2023-09-12T05:05:20;95039.41;;;27.20;42.72
22389;BME280;11362;48.102;11.620;2023-09-12T05:07:46;95033.47;;;27.18;42.68
22389;BME280;11362;48.102;11.620;2023-09-12T05:10:12;95043.06;;;27.17;42.64
22389;BME280;11362;48.102;11.620;2023-09-12T05:12:37;95042.31;;;27.16;42.53
22389;BME280;11362;48.102;11.620;2023-09-12T05:15:04;95039.84;;;27.18;42.71
22389;BME280;11362;48.102;11.620;2023-09-12T05:17:30;95042.19;;;27.20;42.47
22389;BME280;11362;48.102;11.620;2023-09-12T05:19:55;95047.78;;;27.20;42.62
22389;BME280;11362;48.102;11.620;2023-09-12T05:22:21;95050.44;;;27.23;42.79
22389;BME280;11362;48.102;11.620;2023-09-12T05:24:47;95051.75;;;27.19;42.80
22389;BME280;11362;48.102;11.620;2023-09-12T05:27:12;95053.78;;;27.18;42.91
22389;BME280;11362;48.102;11.620;2023-09-12T05:29:38;95052.66;;;27.16;42.73
22389;BME280;11362;48.102;11.620;2023-09-12T05:32:04;95059.03;;;27.16;42.82
22389;BME280;11362;48.102;11.620;2023-09-12T05:34:30;95051.09;;;27.15;43.25
22389;BME280;11362;48.102;11.620;2023-09-12T05:36:56;95044.72;;;27.14;43.27
22389;BME280;11362;48.102;11.620;2023-09-12T05:39:22;95044.72;;;27.14;43.16
22389;BME280;11362;48.102;11.620;2023-09-12T05:41:49;95048.09;;;27.22;42.90
22389;BME280;11362;48.102;11.620;2023-09-12T05:44:14;95046.88;;;27.23;42.83
22389;BME280;11362;48.102;11.620;2023-09-12T05:46:40;95043.75;;;27.21;43.33
22389;BME280;11362;48.102;11.620;2023-09-12T05:49:06;95047.97;;;27.25;43.18
22389;BME280;11362;48.102;11.620;2023-09-12T05:51:32;95054.78;;;27.24;42.75
22389;BME280;11362;48.102;11.620;2023-09-12T05:53:57;95059.47;;;27.27;43.05
22389;BME280;11362;48.102;11.620;2023-09-12T05:56:23;95061.94;;;27.25;43.14
22389;BME280;11362;48.102;11.620;2023-09-12T05:58:49;95064.28;;;27.27;42.95
22389;BME280;11362;48.102;11.620;2023-09-12T06:01:15;95057.13;;;27.26;42.71
22389;BME280;11362;48.102;11.620;2023-09-12T06:03:41;95063.59;;;27.23;43.00
22389;BME280;11362;48.102;11.620;2023-09-12T06:06:06;95062.81;;;27.22;42.84
22389;BME280;11362;48.102;11.620;2023-09-12T06:08:32;95065.38;;;27.17;43.10
22389;BME280;11362;48.102;11.620;2023-09-12T06:10:58;95060.59;;;27.17;43.14
22389;BME280;11362;48.102;11.620;2023-09-12T06:13:24;95063.59;;;27.23;42.89
22389;BME280;11362;48.102;11.620;2023-09-12T06:15:49;95067.88;;;26.86;42.38
22389;BME280;11362;48.102;11.620;2023-09-12T06:18:15;95065.47;;;26.60;42.82
22389;BME280;11362;48.102;11.620;2023-09-12T06:20:41;95072.44;;;26.23;43.20
22389;BME280;11362;48.102;11.620;2023-09-12T06:23:06;95067.13;;;26.29;42.97
22389;BME280;11362;48.102;11.620;2023-09-12T06:25:32;95065.81;;;26.33;43.06
22389;BME280;11362;48.102;11.620;2023-09-12T06:27:57;95069.09;;;26.44;42.96
22389;BME280;11362;48.102;11.620;2023-09-12T06:30:23;95067.28;;;26.50;43.01
22389;BME280;11362;48.102;11.620;2023-09-12T06:32:49;95076.31;;;26.42;43.31
22389;BME280;11362;48.102;11.620;2023-09-12T06:35:14;95071.59;;;26.39;43.24
22389;BME280;11362;48.102;11.620;2023-09-12T06:37:40;95080.31;;;26.41;43.40
22389;BME280;11362;48.102;11.620;2023-09-12T06:40:07;95072.41;;;26.39;43.33
22389;BME280;11362;48.102;11.620;2023-09-12T06:42:33;95073.13;;;26.27;43.45
22389;BME280;11362;48.102;11.620;2023-09-12T06:44:58;95074.00;;;26.24;43.54
22389;BME280;11362;48.102;11.620;2023-09-12T06:47:24;95074.16;;;26.33;43.99
22389;BME280;11362;48.102;11.620;2023-09-12T06:49:50;95076.66;;;26.44;44.06
22389;BME280;11362;48.102;11.620;2023-09-12T06:52:15;95074.38;;;26.55;44.72
22389;BME280;11362;48.102;11.620;2023-09-12T06:54:41;95075.28;;;26.64;44.83
22389;BME280;11362;48.102;11.620;2023-09-12T06:57:07;95076.63;;;26.72;44.73
22389;BME280;11362;48.102;11.620;2023-09-12T06:59:32;95078.56;;;26.75;44.24
22389;BME280;11362;48.102;11.620;2023-09-12T07:01:58;95081.25;;;26.79;44.16
22389;BME280;11362;48.102;11.620;2023-09-12T07:04:23;95079.81;;;26.87;44.44
22389;BME280;11362;48.102;11.620;2023-09-12T07:06:49;95075.69;;;26.91;44.12
22389;BME280;11362;48.102;11.620;2023-09-12T07:09:14;95081.94;;;26.95;44.12
22389;BME280;11362;48.102;11.620;2023-09-12T07:11:42;95078.59;;;27.00;44.09
22389;BME280;11362;48.102;11.620;2023-09-12T07:14:09;95080.16;;;27.01;44.01
22389;BME280;11362;48.102;11.620;2023-09-12T07:16:34;95079.28;;;27.04;44.47
22389;BME280;11362;48.102;11.620;2023-09-12T07:19:00;95081.16;;;27.07;44.26
22389;BME280;11362;48.102;11.620;2023-09-12T07:21:25;95090.31;;;27.08;44.17
22389;BME280;11362;48.102;11.620;2023-09-12T07:23:51;95093.78;;;27.12;44.47
22389;BME280;11362;48.102;11.620;2023-09-12T07:26:16;95089.78;;;27.13;44.71
22389;BME280;11362;48.102;11.620;2023-09-12T07:28:42;95095.34;;;27.13;44.36
22389;BME280;11362;48.102;11.620;2023-09-12T07:31:07;95089.78;;;27.13;44.64
22389;BME280;11362;48.102;11.620;2023-09-12T07:33:33;95084.56;;;27.15;44.54
22389;BME280;11362;48.102;11.620;2023-09-12T07:35:58;95093.25;;;27.17;44.54
22389;BME280;11362;48.102;11.620;2023-09-12T07:38:24;95091.59;;;27.19;44.59
22389;BME280;11362;48.102;11.620;2023-09-12T07:40:49;95094.59;;;27.25;44.17
22389;BME280;11362;48.102;11.620;2023-09-12T07:43:15;95094.16;;;27.26;44.04
22389;BME280;11362;48.102;11.620;2023-09-12T07:45:40;95085.38;;;27.28;44.13
22389;BME280;11362;48.102;11.620;2023-09-12T07:48:10;95095.41;;;27.25;44.42
22389;BME280;11362;48.102;11.620;2023-09-12T07:50:35;95088.16;;;27.28;44.43
22389;BME280;11362;48.102;11.620;2023-09-12T07:53:01;95095.28;;;27.29;44.43
22389;BME280;11362;48.102;11.620;2023-09-12T07:55:26;95086.59;;;27.27;44.25
22389;BME280;11362;48.102;11.620;2023-09-12T07:57:52;95101.53;;;27.33;44.43
22389;BME280;11362;48.102;11.620;2023-09-12T08:00:17;95103.88;;;27.34;44.40
22389;BME280;11362;48.102;11.620;2023-09-12T08:02:43;95104.66;;;27.35;44.53
22389;BME280;11362;48.102;11.620;2023-09-12T08:05:08;95100.97;;;27.38;44.35
22389;BME280;11362;48.102;11.620;2023-09-12T08:07:34;95102.09;;;27.40;44.72
22389;BME280;11362;48.102;11.620;2023-09-12T08:10:00;95107.69;;;27.40;44.73
22389;BME280;11362;48.102;11.620;2023-09-12T08:12:27;95106.00;;;27.43;44.98
22389;BME280;11362;48.102;11.620;2023-09-12T08:14:53;95102.75;;;27.44;44.61
22389;BME280;11362;48.102;11.620;2023-09-12T08:17:19;95108.69;;;27.46;44.90
22389;BME280;11362;48.102;11.620;2023-09-12T08:19:45;95103.09;;;27.46;44.88
22389;BME280;11362;48.102;11.620;2023-09-12T08:22:11;95099.09;;;27.47;44.92
22389;BME280;11362;48.102;11.620;2023-09-12T08:24:37;95094.75;;;27.46;45.31
22389;BME280;11362;48.102;11.620;2023-09-12T08:27:03;95097.84;;;27.48;45.65
22389;BME280;11362;48.102;11.620;2023-09-12T08:29:29;95100.53;;;27.52;45.38
22389;BME280;11362;48.102;11.620;2023-09-12T08:31:55;95101.66;;;27.54;45.34
22389;BME280;11362;48.102;11.620;2023-09-12T08:34:21;95096.41;;;27.56;45.58
22389;BME280;11362;48.102;11.620;2023-09-12T08:36:47;95090.50;;;27.54;45.84
22389;BME280;11362;48.102;11.620;2023-09-12T08:39:15;95103.22;;;27.55;45.18
22389;BME280;11362;48.102;11.620;2023-09-12T08:41:44;95092.84;;;27.56;45.83
22389;BME280;11362;48.102;11.620;2023-09-12T08:44:09;95095.97;;;27.58;45.65
22389;BME280;11362;48.102;11.620;2023-09-12T08:46:35;95099.06;;;27.60;45.86
22389;BME280;11362;48.102;11.620;2023-09-12T08:49:01;95098.16;;;27.63;46.00
22389;BME280;11362;48.102;11.620;2023-09-12T08:51:27;95097.41;;;27.62;45.98
22389;BME280;11362;48.102;11.620;2023-09-12T08:53:52;95096.28;;;27.60;46.40
22389;BME280;11362;48.102;11.620;2023-09-12T08:56:18;95091.81;;;27.62;46.06
22389;BME280;11362;48.102;11.620;2023-09-12T08:58:45;95090.16;;;27.65;46.01
22389;BME280;11362;48.102;11.620;2023-09-12T09:01:14;95086.88;;;27.66;45.82
22389;BME280;11362;48.102;11.620;2023-09-12T09:03:41;95092.03;;;27.68;45.87
22389;BME280;11362;48.102;11.620;2023-09-12T09:06:11;95080.88;;;27.68;45.95
22389;BME280;11362;48.102;11.620;2023-09-12T09:08:38;95084.44;;;27.68;45.86
22389;BME280;11362;48.102;11.620;2023-09-12T09:11:04;95088.81;;;27.69;45.83
22389;BME280;11362;48.102;11.620;2023-09-12T09:13:30;95077.19;;;27.71;45.84
22389;BME280;11362;48.102;11.620;2023-09-12T09:16:15;95076.41;;;27.70;45.85
22389;BME280;11362;48.102;11.620;2023-09-12T09:21:20;95079.53;;;27.72;45.90
22389;BME280;11362;48.102;11.620;2023-09-12T09:23:47;95072.72;;;27.73;45.87
22389;BME280;11362;48.102;11.620;2023-09-12T09:26:13;95077.84;;;27.75;45.34
22389;BME280;11362;48.102;11.620;2023-09-12T09:28:38;95074.66;;;27.76;45.60
22389;BME280;11362;48.102;11.620;2023-09-12T09:31:05;95067.38;;;27.79;45.86
22389;BME280;11362;48.102;11.620;2023-09-12T09:33:35;95070.19;;;27.79;45.82
22389;BME280;11362;48.102;11.620;2023-09-12T09:36:04;95071.84;;;27.76;46.18
22389;BME280;11362;48.102;11.620;2023-09-12T09:38:30;95072.38;;;27.71;46.30
22389;BME280;11362;48.102;11.620;2023-09-12T09:40:56;95068.16;;;27.79;45.91
22389;BME280;11362;48.102;11.620;2023-09-12T09:43:22;95062.91;;;27.81;45.77
22389;BME280;11362;48.102;11.620;2023-09-12T09:45:48;95065.03;;;27.77;45.83
22389;BME280;11362;48.102;11.620;2023-09-12T09:48:24;95060.69;;;27.76;45.56
22389;BME280;11362;48.102;11.620;2023-09-12T09:50:50;95062.56;;;27.79;45.29
22389;BME280;11362;48.102;11.620;2023-09-12T09:53:16;95059.44;;;27.77;45.37
22389;BME280;11362;48.102;11.620;2023-09-12T09:55:41;95058.75;;;27.73;45.64
22389;BME280;11362;48.102;11.620;2023-09-12T09:58:07;95053.97;;;27.74;45.39
22389;BME280;11362;48.102;11.620;2023-09-12T10:00:36;95051.41;;;27.79;45.41
22389;BME280;11362;48.102;11.620;2023-09-12T10:03:04;95048.63;;;27.79;45.49
22389;BME280;11362;48.102;11.620;2023-09-12T10:05:31;95051.28;;;27.83;45.33
22389;BME280;11362;48.102;11.620;2023-09-12T10:07:58;95047.38;;;27.80;45.57
22389;BME280;11362;48.102;11.620;2023-09-12T10:10:25;95053.75;;;27.81;45.20
22389;BME280;11362;48.102;11.620;2023-09-12T10:12:57;95055.31;;;27.82;45.29
22389;BME280;11362;48.102;11.620;2023-09-12T10:15:29;95045.81;;;27.79;45.48
22389;BME280;11362;48.102;11.620;2023-09-12T10:18:00;95049.53;;;27.76;45.57
22389;BME280;11362;48.102;11.620;2023-09-12T10:20:37;95053.88;;;27.77;45.41
22389;BME280;11362;48.102;11.620;2023-09-12T10:23:23;95047.59;;;27.73;45.63
22389;BME280;11362;48.102;11.620;2023-09-12T10:25:53;95050.16;;;27.80;45.57
22389;BME280;11362;48.102;11.620;2023-09-12T10:28:19;95052.31;;;27.76;45.68
22389;BME280;11362;48.102;11.620;2023-09-12T10:30:44;95047.50;;;27.77;45.83
22389;BME280;11362;48.102;11.620;2023-09-12T10:33:11;95042.72;;;27.77;45.45
22389;BME280;11362;48.102;11.620;2023-09-12T10:35:38;95046.28;;;27.78;45.45
22389;BME280;11362;48.102;11.620;2023-09-12T10:38:05;95046.63;;;27.80;45.31
22389;BME280;11362;48.102;11.620;2023-09-12T10:40:36;95041.47;;;27.78;44.79
22389;BME280;11362;48.102;11.620;2023-09-12T10:43:03;95039.91;;;27.77;45.09
22389;BME280;11362;48.102;11.620;2023-09-12T10:45:31;95042.00;;;27.73;45.59
22389;BME280;11362;48.102;11.620;2023-09-12T10:47:56;95047.59;;;27.73;45.45
22389;BME280;11362;48.102;11.620;2023-09-12T10:50:22;95039.13;;;27.77;45.53
22389;BME280;11362;48.102;11.620;2023-09-12T10:52:48;95042.59;;;27.81;45.55
22389;BME280;11362;48.102;11.620;2023-09-12T10:55:17;95037.44;;;27.79;45.66
22389;BME280;11362;48.102;11.620;2023-09-12T10:58:01;95036.22;;;27.80;45.68
22389;BME280;11362;48.102;11.620;2023-09-12T11:00:26;95031.75;;;27.83;45.63
22389;BME280;11362;48.102;11.620;2023-09-12T11:02:52;95031.75;;;27.83;45.65
22389;BME280;11362;48.102;11.620;2023-09-12T11:07:56;95036.88;;;27.84;45.62
22389;BME280;11362;48.102;11.620;2023-09-12T11:10:22;95040.47;;;27.85;45.78
22389;BME280;11362;48.102;11.620;2023-09-12T11:12:52;95039.34;;;27.82;45.61
22389;BME280;11362;48.102;11.620;2023-09-12T11:15:20;95023.97;;;27.78;45.68
22389;BME280;11362;48.102;11.620;2023-09-12T11:17:47;95037.81;;;27.81;45.55
22389;BME280;11362;48.102;11.620;2023-09-12T11:20:14;95025.84;;;27.81;45.48
22389;BME280;11362;48.102;11.620;2023-09-12T11:22:47;95030.63;;;27.80;45.41
22389;BME280;11362;48.102;11.620;2023-09-12T11:25:17;95032.34;;;27.78;45.50
22389;BME280;11362;48.102;11.620;2023-09-12T11:30:18;95028.75;;;27.77;45.37
22389;BME280;11362;48.102;11.620;2023-09-12T11:32:46;95026.06;;;27.74;45.54
22389;BME280;11362;48.102;11.620;2023-09-12T11:35:13;95027.59;;;27.75;45.52
22389;BME280;11362;48.102;11.620;2023-09-12T11:37:38;95030.84;;;27.73;45.53
22389;BME280;11362;48.102;11.620;2023-09-12T11:42:41;95027.41;;;27.69;45.53
22389;BME280;11362;48.102;11.620;2023-09-12T11:45:11;95029.88;;;27.67;45.51
22389;BME280;11362;48.102;11.620;2023-09-12T11:47:42;95023.06;;;27.68;45.74
22389;BME280;11362;48.102;11.620;2023-09-12T11:50:25;95025.50;;;27.66;45.52
22389;BME280;11362;48.102;11.620;2023-09-12T11:53:01;95020.38;;;27.65;45.51
22389;BME280;11362;48.102;11.620;2023-09-12T11:55:26;95018.34;;;27.65;45.53
22389;BME280;11362;48.102;11.620;2023-09-12T11:57:52;95022.25;;;27.68;45.59
22389;BME280;11362;48.102;11.620;2023-09-12T12:00:18;95016.88;;;27.73;45.48
22389;BME280;11362;48.102;11.620;2023-09-12T12:02:44;95016.78;;;27.77;46.25
22389;BME280;11362;48.102;11.620;2023-09-12T12:05:09;95016.44;;;27.75;47.08
22389;BME280;11362;48.102;11.620;2023-09-12T12:07:34;95013.66;;;27.75;47.34
22389;BME280;11362;48.102;11.620;2023-09-12T12:10:00;95008.31;;;27.80;47.23
22389;BME280;11362;48.102;11.620;2023-09-12T12:12:25;95004.31;;;27.81;46.86
22389;BME280;11362;48.102;11.620;2023-09-12T12:14:50;95003.81;;;27.83;46.86
22389;BME280;11362;48.102;11.620;2023-09-12T12:17:16;95009.88;;;27.81;47.00
22389;BME280;11362;48.102;11.620;2023-09-12T12:19:45;95007.41;;;27.83;46.81
22389;BME280;11362;48.102;11.620;2023-09-12T12:22:10;95004.94;;;27.85;47.29
22389;BME280;11362;48.102;11.620;2023-09-12T12:24:41;95007.06;;;27.94;45.60
22389;BME280;11362;48.102;11.620;2023-09-12T12:27:06;94999.44;;;27.94;45.09
22389;BME280;11362;48.102;11.620;2023-09-12T12:29:32;94999.44;;;27.94;43.63
22389;BME280;11362;48.102;11.620;2023-09-12T12:32:01;94996.66;;;27.94;44.08
22389;BME280;11362;48.102;11.620;2023-09-12T12:34:27;94997.31;;;27.98;43.79
22389;BME280;11362;48.102;11.620;2023-09-12T12:36:54;94988.69;;;28.05;42.64
22389;BME280;11362;48.102;11.620;2023-09-12T12:39:20;94991.59;;;28.02;41.47
22389;BME280;11362;48.102;11.620;2023-09-12T12:41:46;94986.03;;;28.02;41.46
22389;BME280;11362;48.102;11.620;2023-09-12T12:44:11;94992.97;;;27.97;41.02
22389;BME280;11362;48.102;11.620;2023-09-12T12:46:51;94984.72;;;27.94;40.35
22389;BME280;11362;48.102;11.620;2023-09-12T12:49:17;94980.44;;;28.02;40.52
22389;BME280;11362;48.102;11.620;2023-09-12T12:51:42;94990.38;;;28.03;39.35
22389;BME280;11362;48.102;11.620;2023-09-12T12:54:08;94986.03;;;28.02;39.71
22389;BME280;11362;48.102;11.620;2023-09-12T12:56:33;94984.34;;;28.04;38.85
22389;BME280;11362;48.102;11.620;2023-09-12T12:59:00;94980.19;;;28.09;39.15
22389;BME280;11362;48.102;11.620;2023-09-12T13:01:25;94971.34;;;28.10;38.52
22389;BME280;11362;48.102;11.620;2023-09-12T13:03:51;94966.84;;;28.13;38.69